createdAt,value
2023-04-29T00:00:13.352Z,97239.28
2023-04-29T00:02:41.843Z,97237.59
2023-04-29T00:05:11.211Z,97218.31
2023-04-29T00:07:40.071Z,97216.84
2023-04-29T00:10:09.374Z,97197.66
2023-04-29T00:12:37.866Z,97195.78
2023-04-29T00:15:07.143Z,97185.81
2023-04-29T00:17:37.014Z,97184.44
2023-04-29T00:20:06.441Z,97203.16
2023-04-29T00:22:34.753Z,97202.63
2023-04-29T00:25:03.107Z,97199.97
2023-04-29T00:27:31.421Z,97184.00
2023-04-29T00:29:59.803Z,97171.91
2023-04-29T00:32:28.130Z,97185.47
2023-04-29T00:34:57.906Z,97192.28
2023-04-29T00:37:26.191Z,97202.00
2023-04-29T00:39:54.534Z,97199.69
2023-04-29T00:42:23.404Z,97215.75
2023-04-29T00:44:51.591Z,97231.50
2023-04-29T00:47:20.007Z,97231.50
2023-04-29T00:49:48.431Z,97230.94
2023-04-29T00:52:19.107Z,97231.31
2023-04-29T00:54:47.619Z,97247.69
2023-04-29T00:57:16.538Z,97246.00
2023-04-29T00:59:45.821Z,97238.34
2023-04-29T01:02:15.338Z,97235.66
2023-04-29T01:04:43.771Z,97261.78
2023-04-29T01:07:18.491Z,97256.81
2023-04-29T01:10:03.155Z,97253.50
2023-04-29T01:12:38.118Z,97255.97
2023-04-29T01:15:13.434Z,97253.03
2023-04-29T01:17:45.960Z,97248.34
2023-04-29T01:20:15.627Z,97256.91
2023-04-29T01:22:45.517Z,97267.50
2023-04-29T01:25:15.178Z,97262.50
2023-04-29T01:28:11.627Z,97258.25
2023-04-29T01:30:47.324Z,97260.78
2023-04-29T01:33:20.536Z,97263.69
2023-04-29T01:36:01.880Z,97254.44
2023-04-29T01:38:37.910Z,97253.81
2023-04-29T01:41:14.611Z,97250.88
2023-04-29T01:43:45.610Z,97256.84
2023-04-29T01:46:20.703Z,97251.41
2023-04-29T01:48:50.420Z,97256.53
2023-04-29T01:51:19.013Z,97251.16
2023-04-29T01:53:47.304Z,97264.94
2023-04-29T01:56:17.289Z,97260.56
2023-04-29T01:59:00.048Z,97268.59
2023-04-29T02:01:28.422Z,97258.97
2023-04-29T02:03:56.715Z,97262.38
2023-04-29T02:06:25.558Z,97265.00
2023-04-29T02:08:59.156Z,97268.25
2023-04-29T02:11:28.898Z,97251.78
2023-04-29T02:13:59.263Z,97245.00
2023-04-29T02:16:27.826Z,97246.72
2023-04-29T02:19:02.631Z,97267.94
2023-04-29T02:21:31.957Z,97253.41
2023-04-29T02:24:02.705Z,97259.72
2023-04-29T02:26:32.714Z,97255.91
2023-04-29T02:29:01.087Z,97253.63
2023-04-29T02:31:30.290Z,97259.00
2023-04-29T02:33:58.582Z,97254.19
2023-04-29T02:36:26.989Z,97255.03
2023-04-29T02:38:56.534Z,97253.03
2023-04-29T02:41:25.967Z,97256.97
2023-04-29T02:43:55.748Z,97249.63
2023-04-29T02:46:24.338Z,97251.53
2023-04-29T02:48:53.121Z,97263.25
2023-04-29T02:51:21.526Z,97281.00
2023-04-29T02:53:50.373Z,97279.28
2023-04-29T02:56:18.687Z,97267.19
2023-04-29T02:58:47.048Z,97257.75
2023-04-29T03:01:16.913Z,97263.63
2023-04-29T03:03:45.421Z,97261.59
2023-04-29T03:06:13.769Z,97280.81
2023-04-29T03:08:42.170Z,97264.91
2023-04-29T03:11:10.521Z,97267.72
2023-04-29T03:13:40.113Z,97260.91
2023-04-29T03:16:10.127Z,97268.84
2023-04-29T03:18:40.000Z,97281.00
2023-04-29T03:21:09.247Z,97271.63
2023-04-29T03:23:39.471Z,97268.06
2023-04-29T03:26:09.187Z,97268.06
2023-04-29T03:28:38.893Z,97259.22
2023-04-29T03:31:07.378Z,97249.59
2023-04-29T03:33:36.291Z,97249.53
2023-04-29T03:36:06.955Z,97252.50
2023-04-29T03:38:41.675Z,97258.56
2023-04-29T03:41:10.500Z,97265.53
2023-04-29T03:43:38.825Z,97255.22
2023-04-29T03:46:07.660Z,97258.63
2023-04-29T03:48:37.013Z,97259.66
2023-04-29T03:51:07.171Z,97247.16
2023-04-29T03:53:36.905Z,97255.91
2023-04-29T03:56:07.145Z,97258.38
2023-04-29T03:58:35.512Z,97249.88
2023-04-29T04:01:03.999Z,97256.16
2023-04-29T04:03:39.971Z,97251.84
2023-04-29T04:06:09.834Z,97248.50
2023-04-29T04:08:38.193Z,97250.22
2023-04-29T04:11:19.560Z,97257.78
2023-04-29T04:13:56.594Z,97262.72
2023-04-29T04:16:25.759Z,97265.19
2023-04-29T04:18:54.056Z,97260.84
2023-04-29T04:21:24.004Z,97257.09
2023-04-29T04:24:01.779Z,97266.34
2023-04-29T04:26:31.417Z,97276.47
2023-04-29T04:29:15.603Z,97258.69
2023-04-29T04:32:01.830Z,97271.38
2023-04-29T04:34:31.341Z,97271.78
2023-04-29T04:37:03.247Z,97274.84
2023-04-29T04:39:32.574Z,97279.44
2023-04-29T04:42:04.009Z,97265.59
2023-04-29T04:44:34.639Z,97274.59
2023-04-29T04:47:07.659Z,97268.56
2023-04-29T04:49:49.921Z,97261.03
2023-04-29T04:52:21.561Z,97259.56
2023-04-29T04:55:00.690Z,97261.81
2023-04-29T04:57:34.729Z,97273.81
2023-04-29T05:00:04.392Z,97278.06
2023-04-29T05:02:34.167Z,97280.72
2023-04-29T05:05:02.971Z,97275.59
2023-04-29T05:07:36.408Z,97276.75
2023-04-29T05:10:08.899Z,97282.78
2023-04-29T05:12:45.023Z,97272.94
2023-04-29T05:15:15.157Z,97279.13
2023-04-29T05:17:45.054Z,97284.06
2023-04-29T05:20:14.220Z,97292.50
2023-04-29T05:22:44.136Z,97292.00
2023-04-29T05:25:14.317Z,97290.63
2023-04-29T05:27:42.978Z,97288.75
2023-04-29T05:30:16.383Z,97281.97
2023-04-29T05:32:45.929Z,97279.66
2023-04-29T05:35:17.358Z,97277.97
2023-04-29T05:37:47.572Z,97286.66
2023-04-29T05:40:39.540Z,97299.22
2023-04-29T05:43:32.842Z,97302.50
2023-04-29T05:46:01.807Z,97318.09
2023-04-29T05:48:30.685Z,97322.34
2023-04-29T05:50:59.407Z,97319.16
2023-04-29T05:53:29.581Z,97309.81
2023-04-29T05:55:58.249Z,97302.16
2023-04-29T05:58:26.916Z,97299.31
2023-04-29T06:00:55.445Z,97308.09
2023-04-29T06:03:27.310Z,97305.25
2023-04-29T06:06:18.620Z,97314.06
2023-04-29T06:09:13.326Z,97315.28
2023-04-29T06:11:47.308Z,97314.63
2023-04-29T06:14:15.856Z,97317.69
2023-04-29T06:16:44.066Z,97314.22
2023-04-29T06:19:12.301Z,97321.13
2023-04-29T06:21:40.707Z,97311.25
2023-04-29T06:24:10.677Z,97316.91
2023-04-29T06:26:39.120Z,97317.09
2023-04-29T06:29:07.576Z,97313.88
2023-04-29T06:31:38.490Z,97320.06
2023-04-29T06:34:06.980Z,97319.47
2023-04-29T06:36:39.730Z,97315.59
2023-04-29T06:39:27.964Z,97323.34
2023-04-29T06:42:16.787Z,97316.81
2023-04-29T06:44:54.577Z,97299.59
2023-04-29T06:47:52.413Z,97294.47
2023-04-29T06:50:35.052Z,97284.41
2023-04-29T06:53:03.490Z,97299.88
2023-04-29T06:55:33.246Z,97300.53
2023-04-29T06:58:01.995Z,97307.44
2023-04-29T07:00:30.290Z,97302.22
2023-04-29T07:02:58.935Z,97298.50
2023-04-29T07:05:27.457Z,97311.53
2023-04-29T07:07:55.942Z,97307.53
2023-04-29T07:10:24.444Z,97302.75
2023-04-29T07:12:54.676Z,97305.47
2023-04-29T07:15:23.357Z,97310.84
2023-04-29T07:17:51.883Z,97312.22
2023-04-29T07:20:22.390Z,97301.06
2023-04-29T07:22:51.164Z,97294.63
2023-04-29T07:25:19.543Z,97304.69
2023-04-29T07:27:48.037Z,97296.38
2023-04-29T07:30:17.747Z,97294.81
2023-04-29T07:32:46.097Z,97295.06
2023-04-29T07:35:14.433Z,97291.13
2023-04-29T07:37:44.107Z,97288.94
2023-04-29T07:40:13.238Z,97290.94
2023-04-29T07:42:41.668Z,97296.75
2023-04-29T07:45:10.986Z,97294.53
2023-04-29T07:47:40.858Z,97303.25
2023-04-29T07:50:09.763Z,97299.53
2023-04-29T07:52:40.444Z,97302.09
2023-04-29T07:55:09.409Z,97299.66
2023-04-29T07:57:37.689Z,97296.50
2023-04-29T08:00:08.319Z,97300.69
2023-04-29T08:02:45.049Z,97304.69
2023-04-29T08:05:16.517Z,97301.44
2023-04-29T08:07:44.988Z,97296.81
2023-04-29T08:10:13.471Z,97298.81
2023-04-29T08:12:41.993Z,97300.81
2023-04-29T08:15:10.970Z,97303.63
2023-04-29T08:17:39.390Z,97302.50
2023-04-29T08:20:10.863Z,97299.91
2023-04-29T08:22:39.351Z,97300.81
2023-04-29T08:25:09.083Z,97297.19
2023-04-29T08:27:37.273Z,97302.34
2023-04-29T08:30:06.908Z,97301.75
2023-04-29T08:32:35.699Z,97315.34
2023-04-29T08:35:04.223Z,97320.72
2023-04-29T08:37:33.957Z,97308.94
2023-04-29T08:40:02.267Z,97315.59
2023-04-29T08:42:37.850Z,97314.72
2023-04-29T08:45:07.144Z,97319.69
2023-04-29T08:47:36.549Z,97325.00
2023-04-29T08:50:07.085Z,97318.06
2023-04-29T08:52:37.665Z,97316.50
2023-04-29T08:55:07.197Z,97317.97
2023-04-29T08:57:39.993Z,97305.34
2023-04-29T09:00:11.283Z,97311.50
2023-04-29T09:02:44.904Z,97305.53
2023-04-29T09:05:13.870Z,97312.97
2023-04-29T09:07:45.245Z,97313.81
2023-04-29T09:10:15.238Z,97303.03
2023-04-29T09:12:43.571Z,97313.84
2023-04-29T09:15:12.424Z,97311.75
2023-04-29T09:17:45.041Z,97301.78
2023-04-29T09:20:29.652Z,97300.47
2023-04-29T09:23:01.766Z,97293.75
2023-04-29T09:25:30.343Z,97297.69
2023-04-29T09:28:15.877Z,97298.59
2023-04-29T09:30:51.127Z,97291.91
2023-04-29T09:33:19.528Z,97289.28
2023-04-29T09:35:48.901Z,97289.31
2023-04-29T09:38:18.955Z,97277.81
2023-04-29T09:40:59.020Z,97269.81
2023-04-29T09:43:28.445Z,97264.88
2023-04-29T09:45:57.545Z,97270.22
2023-04-29T09:48:33.835Z,97267.69
2023-04-29T09:51:03.633Z,97264.81
2023-04-29T09:53:37.975Z,97255.25
2023-04-29T09:56:07.422Z,97263.31
2023-04-29T09:58:38.205Z,97253.81
2023-04-29T10:01:07.569Z,97262.59
2023-04-29T10:03:37.578Z,97262.34
2023-04-29T10:06:08.652Z,97256.69
2023-04-29T10:08:38.410Z,97258.00
2023-04-29T10:11:06.876Z,97249.25
2023-04-29T10:13:38.560Z,97236.53
2023-04-29T10:16:17.656Z,97244.94
2023-04-29T10:18:53.743Z,97239.22
2023-04-29T10:21:26.084Z,97235.03
2023-04-29T10:23:57.972Z,97238.06
2023-04-29T10:26:28.880Z,97235.97
2023-04-29T10:28:58.750Z,97233.50
2023-04-29T10:31:28.072Z,97220.03
2023-04-29T10:33:58.127Z,97214.47
2023-04-29T10:36:28.780Z,97206.66
2023-04-29T10:39:02.768Z,97209.59
2023-04-29T10:41:35.139Z,97212.97
2023-04-29T10:44:04.724Z,97210.75
2023-04-29T10:46:33.182Z,97209.53
2023-04-29T10:49:04.109Z,97198.63
2023-04-29T10:51:34.030Z,97201.75
2023-04-29T10:54:07.708Z,97188.88
2023-04-29T10:56:41.279Z,97193.63
2023-04-29T10:59:16.739Z,97186.56
2023-04-29T11:01:50.353Z,97188.56
2023-04-29T11:04:20.148Z,97196.06
2023-04-29T11:06:53.164Z,97199.25
2023-04-29T11:09:26.903Z,97194.69
2023-04-29T11:12:01.713Z,97198.00
2023-04-29T11:14:37.406Z,97198.06
2023-04-29T11:17:10.464Z,97184.56
2023-04-29T11:19:43.037Z,97197.09
2023-04-29T11:22:26.069Z,97190.75
2023-04-29T11:24:58.325Z,97182.72
2023-04-29T11:27:27.924Z,97177.22
2023-04-29T11:29:58.930Z,97170.69
2023-04-29T11:32:28.221Z,97164.00
2023-04-29T11:34:56.853Z,97159.19
2023-04-29T11:37:26.995Z,97170.81
2023-04-29T11:40:02.416Z,97172.25
2023-04-29T11:42:30.769Z,97176.63
2023-04-29T11:45:00.577Z,97171.41
2023-04-29T11:47:30.592Z,97158.47
2023-04-29T11:50:06.220Z,97169.44
2023-04-29T11:52:34.585Z,97162.81
2023-04-29T11:55:05.041Z,97153.19
2023-04-29T11:57:33.859Z,97153.88
2023-04-29T12:00:02.660Z,97136.41
2023-04-29T12:02:37.152Z,97140.03
2023-04-29T12:05:08.703Z,97142.72
2023-04-29T12:07:37.690Z,97137.22
2023-04-29T12:10:11.392Z,97133.00
2023-04-29T12:12:41.046Z,97130.91
2023-04-29T12:15:11.297Z,97128.75
2023-04-29T12:17:40.247Z,97128.97
2023-04-29T12:20:10.864Z,97128.16
2023-04-29T12:22:39.817Z,97129.94
2023-04-29T12:25:10.601Z,97118.16
2023-04-29T12:27:42.707Z,97111.28
2023-04-29T12:30:12.254Z,97124.25
2023-04-29T12:32:40.555Z,97133.16
2023-04-29T12:35:16.788Z,97115.91
2023-04-29T12:37:49.879Z,97109.56
2023-04-29T12:40:20.799Z,97108.31
2023-04-29T12:42:49.168Z,97107.41
2023-04-29T12:45:32.203Z,97114.28
2023-04-29T12:48:01.208Z,97099.34
2023-04-29T12:50:33.001Z,97103.94
2023-04-29T12:53:01.580Z,97098.53
2023-04-29T12:55:31.050Z,97086.06
2023-04-29T12:58:00.951Z,97091.41
2023-04-29T13:00:29.509Z,97086.25
2023-04-29T13:02:57.698Z,97081.97
2023-04-29T13:05:25.987Z,97080.56
2023-04-29T13:07:54.400Z,97078.19
2023-04-29T13:10:22.617Z,97088.09
2023-04-29T13:12:52.394Z,97091.75
2023-04-29T13:15:21.570Z,97093.44
2023-04-29T13:17:49.915Z,97094.25
2023-04-29T13:20:18.387Z,97085.28
2023-04-29T13:22:46.544Z,97092.41
2023-04-29T13:25:16.432Z,97100.84
2023-04-29T13:27:45.247Z,97087.88
2023-04-29T13:30:15.079Z,97089.66
2023-04-29T13:32:51.358Z,97087.34
2023-04-29T13:35:22.957Z,97087.25
2023-04-29T13:37:51.212Z,97092.84
2023-04-29T13:40:21.238Z,97089.38
2023-04-29T13:42:54.706Z,97097.19
2023-04-29T13:45:32.242Z,97088.19
2023-04-29T13:48:09.419Z,97093.53
2023-04-29T14:01:10.076Z,97095.31
2023-04-29T14:03:40.310Z,97091.47
2023-04-29T14:06:08.596Z,97104.66
2023-04-29T14:08:36.881Z,97117.88
2023-04-29T14:11:05.510Z,97115.69
2023-04-29T14:13:33.700Z,97115.97
2023-04-29T14:16:05.395Z,97103.34
2023-04-29T14:18:33.658Z,97108.38
2023-04-29T14:21:01.716Z,97119.72
2023-04-29T14:23:30.017Z,97124.94
2023-04-29T14:26:16.662Z,97128.56
2023-04-29T14:28:46.592Z,97127.56
2023-04-29T14:31:18.414Z,97131.06
2023-04-29T14:33:46.715Z,97130.72
2023-04-29T14:36:15.604Z,97139.16
2023-04-29T14:38:43.651Z,97134.84
2023-04-29T14:41:11.819Z,97139.22
2023-04-29T14:43:41.412Z,97149.66
2023-04-29T14:46:10.015Z,97162.97
2023-04-29T14:48:39.685Z,97161.47
2023-04-29T14:51:08.486Z,97163.25
2023-04-29T14:53:36.602Z,97167.00
2023-04-29T14:56:05.245Z,97167.09
2023-04-29T14:58:33.341Z,97172.25
2023-04-29T15:01:01.700Z,97147.06
2023-04-29T15:03:30.215Z,97146.25
2023-04-29T15:06:03.736Z,97149.91
2023-04-29T15:08:32.213Z,97163.81
2023-04-29T15:11:00.448Z,97156.75
2023-04-29T15:13:30.070Z,97153.44
2023-04-29T15:15:59.323Z,97151.44
2023-04-29T15:18:27.719Z,97158.38
2023-04-29T15:20:55.950Z,97152.31
2023-04-29T15:23:25.959Z,97153.66
2023-04-29T15:25:54.394Z,97147.31
2023-04-29T15:28:24.655Z,97144.69
2023-04-29T15:30:52.953Z,97166.78
2023-04-29T15:33:21.462Z,97141.78
2023-04-29T15:35:49.905Z,97157.88
2023-04-29T15:38:18.457Z,97151.69
2023-04-29T15:40:48.062Z,97155.66
2023-04-29T15:43:16.328Z,97146.00
2023-04-29T15:45:44.677Z,97144.19
2023-04-29T15:48:12.935Z,97142.53
2023-04-29T15:50:41.174Z,97144.06
2023-04-29T15:53:09.402Z,97145.69
2023-04-29T15:55:37.695Z,97142.13
2023-04-29T15:58:07.256Z,97130.69
2023-04-29T16:00:35.528Z,97135.16
2023-04-29T16:03:04.773Z,97136.53
2023-04-29T16:05:33.244Z,97137.09
2023-04-29T16:08:01.603Z,97132.59
2023-04-29T16:10:29.874Z,97145.88
2023-04-29T16:12:58.118Z,97146.50
2023-04-29T16:15:28.371Z,97144.69
2023-04-29T16:17:56.701Z,97150.22
2023-04-29T16:20:25.760Z,97142.66
2023-04-29T16:22:54.091Z,97143.00
2023-04-29T16:25:22.561Z,97155.56
2023-04-29T16:27:50.973Z,97148.13
2023-04-29T16:30:19.146Z,97153.97
2023-04-29T16:32:48.842Z,97167.28
2023-04-29T16:35:17.725Z,97173.94
2023-04-29T16:37:45.952Z,97162.03
2023-04-29T16:40:15.117Z,97181.16
2023-04-29T16:42:43.381Z,97173.81
2023-04-29T16:45:12.799Z,97191.59
2023-04-29T16:47:41.664Z,97182.72
2023-04-29T16:50:13.225Z,97184.69
2023-04-29T16:52:42.238Z,97192.59
2023-04-29T16:55:12.185Z,97191.34
2023-04-29T16:57:40.553Z,97207.66
2023-04-29T17:00:10.447Z,97200.28
2023-04-29T17:02:40.349Z,97205.38
2023-04-29T17:05:11.264Z,97216.34
2023-04-29T17:07:41.103Z,97204.53
2023-04-29T17:10:10.282Z,97226.03
2023-04-29T17:12:38.634Z,97212.13
2023-04-29T17:15:07.866Z,97214.50
2023-04-29T17:17:36.658Z,97218.41
2023-04-29T17:20:05.798Z,97227.16
2023-04-29T17:22:34.571Z,97224.31
2023-04-29T17:25:04.193Z,97234.03
2023-04-29T17:27:32.681Z,97235.44
2023-04-29T17:30:01.593Z,97241.28
2023-04-29T17:32:29.798Z,97250.56
2023-04-29T17:34:58.311Z,97249.00
2023-04-29T17:37:27.202Z,97258.53
2023-04-29T17:39:56.186Z,97265.84
2023-04-29T17:42:26.085Z,97267.50
2023-04-29T17:44:54.412Z,97264.69
2023-04-29T17:47:23.604Z,97265.84
2023-04-29T17:49:52.503Z,97269.47
2023-04-29T17:52:21.923Z,97271.69
2023-04-29T17:54:50.174Z,97262.13
2023-04-29T17:57:19.277Z,97278.41
2023-04-29T17:59:49.185Z,97281.91
2023-04-29T18:02:18.628Z,97297.50
2023-04-29T18:04:47.300Z,97285.84
2023-04-29T18:07:17.273Z,97291.03
2023-04-29T18:09:45.406Z,97288.50
2023-04-29T18:12:14.265Z,97288.22
2023-04-29T18:14:42.517Z,97290.91
2023-04-29T18:17:12.390Z,97295.00
2023-04-29T18:19:40.655Z,97300.06
2023-04-29T18:22:09.699Z,97296.00
2023-04-29T18:24:39.062Z,97294.69
2023-04-29T18:27:07.088Z,97299.56
2023-04-29T18:29:35.326Z,97305.63
2023-04-29T18:32:05.078Z,97299.81
2023-04-29T18:34:36.468Z,97313.94
2023-04-29T18:37:04.562Z,97305.34
2023-04-29T18:39:32.653Z,97309.34
2023-04-29T18:42:01.122Z,97315.53
2023-04-29T18:44:29.393Z,97315.63
2023-04-29T18:46:58.029Z,97317.88
2023-04-29T18:49:26.348Z,97323.34
2023-04-29T18:51:56.050Z,97325.47
2023-04-29T18:54:24.881Z,97324.75
2023-04-29T18:56:53.728Z,97324.78
2023-04-29T18:59:22.972Z,97316.56
2023-04-29T19:01:52.845Z,97325.28
2023-04-29T19:04:22.444Z,97325.78
2023-04-29T19:06:52.004Z,97330.59
2023-04-29T19:09:22.002Z,97336.19
2023-04-29T19:11:50.350Z,97340.19
2023-04-29T19:14:18.534Z,97342.91
2023-04-29T19:16:47.002Z,97347.97
2023-04-29T19:19:16.930Z,97355.75
2023-04-29T19:21:45.716Z,97358.34
2023-04-29T19:24:14.023Z,97363.47
2023-04-29T19:26:44.359Z,97364.53
2023-04-29T19:29:14.475Z,97369.84
2023-04-29T19:31:43.230Z,97383.25
2023-04-29T19:34:12.166Z,97381.19
2023-04-29T19:36:41.058Z,97384.00
2023-04-29T19:39:10.958Z,97387.00
2023-04-29T19:41:39.546Z,97400.78
2023-04-29T19:44:10.901Z,97392.16
2023-04-29T19:46:39.762Z,97396.88
2023-04-29T19:49:08.249Z,97400.47
2023-04-29T19:51:37.572Z,97401.16
2023-04-29T19:54:05.780Z,97407.72
2023-04-29T19:56:34.035Z,97409.63
2023-04-29T19:59:02.666Z,97414.94
2023-04-29T20:01:32.825Z,97415.34
2023-04-29T20:04:01.279Z,97414.50
2023-04-29T20:06:29.805Z,97415.25
2023-04-29T20:08:58.788Z,97428.06
2023-04-29T20:11:27.143Z,97421.69
2023-04-29T20:13:55.537Z,97427.66
2023-04-29T20:16:24.812Z,97438.78
2023-04-29T20:18:54.574Z,97419.53
2023-04-29T20:21:23.916Z,97429.72
2023-04-29T20:23:52.634Z,97446.53
2023-04-29T20:26:21.515Z,97443.50
2023-04-29T20:28:50.191Z,97444.47
2023-04-29T20:31:18.299Z,97434.78
2023-04-29T20:33:47.027Z,97443.28
2023-04-29T20:36:17.212Z,97439.88
2023-04-29T20:38:45.777Z,97444.00
2023-04-29T20:41:13.869Z,97451.75
2023-04-29T20:43:42.790Z,97462.31
2023-04-29T20:46:12.916Z,97451.28
2023-04-29T20:48:41.645Z,97453.69
2023-04-29T20:51:10.502Z,97457.31
2023-04-29T20:53:40.337Z,97455.47
2023-04-29T20:56:10.560Z,97459.50
2023-04-29T20:58:38.653Z,97470.72
2023-04-29T21:01:06.833Z,97463.41
2023-04-29T21:03:35.181Z,97471.84
2023-04-29T21:06:03.338Z,97469.09
2023-04-29T21:08:31.470Z,97477.31
2023-04-29T21:11:01.681Z,97476.06
2023-04-29T21:13:29.859Z,97476.59
2023-04-29T21:15:58.073Z,97477.16
2023-04-29T21:18:26.437Z,97477.78
2023-04-29T21:20:54.612Z,97472.41
2023-04-29T21:23:23.097Z,97473.75
2023-04-29T21:25:51.203Z,97487.78
2023-04-29T21:28:20.862Z,97477.00
2023-04-29T21:30:49.072Z,97492.69
2023-04-29T21:33:17.390Z,97485.25
2023-04-29T21:35:49.020Z,97492.47
2023-04-29T21:38:18.393Z,97478.88
2023-04-29T21:40:48.532Z,97494.81
2023-04-29T21:43:17.377Z,97489.31
2023-04-29T21:45:47.547Z,97492.06
2023-04-29T21:48:17.885Z,97493.97
2023-04-29T21:50:46.465Z,97487.16
2023-04-29T21:53:16.640Z,97480.75
2023-04-29T21:55:45.019Z,97500.97
2023-04-29T21:58:13.158Z,97501.47
2023-04-29T22:00:48.069Z,97510.69
2023-04-29T22:03:17.867Z,97503.97
2023-04-29T22:05:46.119Z,97499.16
2023-04-29T22:08:14.309Z,97504.03
2023-04-29T22:10:42.899Z,97511.47
2023-04-29T22:13:11.466Z,97512.91
2023-04-29T22:15:39.826Z,97502.91
2023-04-29T22:18:08.147Z,97516.06
2023-04-29T22:20:37.909Z,97510.50
2023-04-29T22:23:06.100Z,97514.22
2023-04-29T22:25:34.498Z,97518.97
2023-04-29T22:28:02.696Z,97510.56
2023-04-29T22:30:30.962Z,97517.88
2023-04-29T22:32:59.343Z,97514.69
2023-04-29T22:35:28.417Z,97513.56
2023-04-29T22:37:58.015Z,97513.72
2023-04-29T22:40:26.364Z,97513.38
2023-04-29T22:42:54.524Z,97510.16
2023-04-29T22:45:22.626Z,97506.22
2023-04-29T22:47:51.055Z,97513.69
2023-04-29T22:50:19.266Z,97526.25
2023-04-29T22:52:47.374Z,97529.78
2023-04-29T22:55:17.140Z,97521.44
2023-04-29T22:57:45.304Z,97521.91
2023-04-29T23:00:15.799Z,97532.34
2023-04-29T23:02:44.108Z,97533.50
2023-04-29T23:05:12.359Z,97522.31
2023-04-29T23:07:41.227Z,97526.28
2023-04-29T23:10:10.143Z,97535.91
2023-04-29T23:12:39.857Z,97542.16
2023-04-29T23:15:09.945Z,97545.91
2023-04-29T23:17:39.855Z,97538.06
2023-04-29T23:20:09.045Z,97529.44
2023-04-29T23:22:37.236Z,97527.16
2023-04-29T23:25:06.908Z,97535.88
2023-04-29T23:27:34.963Z,97525.09
2023-04-29T23:30:04.989Z,97538.13
2023-04-29T23:32:33.341Z,97525.19
2023-04-29T23:35:01.760Z,97531.91
2023-04-29T23:37:30.061Z,97530.41
2023-04-29T23:39:58.370Z,97529.81
2023-04-29T23:42:27.392Z,97531.59
2023-04-29T23:44:55.735Z,97521.38
2023-04-29T23:47:25.573Z,97535.09
2023-04-29T23:49:54.256Z,97530.75
2023-04-29T23:52:22.656Z,97523.47
2023-04-29T23:54:50.877Z,97520.16
2023-04-29T23:57:19.072Z,97516.09
2023-04-29T23:59:47.413Z,97519.50
